Time;durP1;ratioP1;P1;durP2;ratioP2;P2;SDS_P1;SDS_P2;PMS_P1;PMS_P2;Temp;Humidity;BMP_temperature;BMP_pressure;BME280_temperature;BME280_humidity;BME280_pressure;Samples;Min_cycle;Max_cycle;Signal;HPM_P1;HPM_P2
2021/01/08 00:03:40;;;;;;;10.33;8.67;;;4.40;99.40;;;;;;10496047;28;20204;-82
2021/01/08 00:08:43;;;;;;;9.67;8.67;;;4.30;99.70;;;;;;10486583;28;20220;-83
2021/01/08 00:13:45;;;;;;;10.40;9.03;;;4.20;99.90;;;;;;10490207;28;20196;-82
2021/01/08 00:18:47;;;;;;;9.10;8.13;;;4.20;99.90;;;;;;10491517;28;20227;-82
2021/01/08 00:23:49;;;;;;;9.20;8.20;;;4.20;99.90;;;;;;10508694;28;20204;-83
2021/01/08 00:28:51;;;;;;;10.10;8.90;;;4.20;99.90;;;;;;10492206;28;20307;-83
2021/01/08 00:33:53;;;;;;;9.23;8.37;;;4.10;99.90;;;;;;10490544;28;20246;-82
2021/01/08 00:38:55;;;;;;;11.00;9.90;;;4.20;99.90;;;;;;10466680;28;614190;-83
2021/01/08 00:43:57;;;;;;;10.50;9.40;;;4.20;99.90;;;;;;10495293;28;20278;-82
2021/01/08 00:48:59;;;;;;;9.80;8.80;;;4.30;99.90;;;;;;10467478;28;20216;-82
2021/01/08 00:54:03;;;;;;;8.90;8.00;;;4.40;99.90;;;;;;10481318;28;20295;-82
2021/01/08 00:59:25;;;;;;;11.13;9.10;;;4.40;99.90;;;;;;10476664;28;20615;-82
2021/01/08 01:04:26;;;;;;;7.90;7.17;;;4.40;99.90;;;;;;10479559;28;20208;-83
2021/01/08 01:09:29;;;;;;;13.80;11.00;;;4.40;99.90;;;;;;10485261;28;20220;-83
2021/01/08 01:14:31;;;;;;;8.73;7.93;;;4.40;99.90;;;;;;10466528;28;20197;-84
2021/01/08 01:19:33;;;;;;;8.07;7.27;;;4.40;99.90;;;;;;10478301;28;20276;-83
2021/01/08 01:24:35;;;;;;;7.90;7.10;;;4.40;99.90;;;;;;10472646;28;20197;-82
2021/01/08 01:29:37;;;;;;;7.37;6.67;;;4.40;99.90;;;;;;10472223;28;20253;-83
2021/01/08 01:34:39;;;;;;;7.57;6.80;;;4.40;99.90;;;;;;10490189;28;20685;-84
2021/01/08 01:39:41;;;;;;;7.40;6.70;;;4.50;99.90;;;;;;10495087;28;20230;-84
2021/01/08 01:44:43;;;;;;;8.27;7.47;;;4.50;99.80;;;;;;10476239;28;20201;-83
2021/01/08 01:49:45;;;;;;;7.23;6.50;;;4.40;99.50;;;;;;10463220;28;20634;-83
2021/01/08 01:54:47;;;;;;;7.90;7.10;;;4.30;99.30;;;;;;10459639;28;20352;-82
2021/01/08 01:59:49;;;;;;;7.57;6.80;;;4.20;99.30;;;;;;10500938;28;20227;-83
2021/01/08 02:04:54;;;;;;;7.40;6.60;;;4.10;99.50;;;;;;10482938;28;20614;-83
2021/01/08 02:09:58;;;;;;;8.00;7.20;;;3.90;99.70;;;;;;10476903;28;20217;-84
2021/01/08 02:15:01;;;;;;;8.03;7.00;;;3.70;99.90;;;;;;10486529;28;20224;-84
2021/01/08 02:20:06;;;;;;;7.13;6.43;;;3.50;99.90;;;;;;10438147;28;20213;-84
2021/01/08 02:25:11;;;;;;;7.70;6.83;;;3.50;99.90;;;;;;10439129;28;20206;-84
2021/01/08 02:30:14;;;;;;;7.07;6.37;;;3.40;99.90;;;;;;10469299;28;20320;-83
2021/01/08 02:35:16;;;;;;;6.57;6.00;;;3.50;99.90;;;;;;10450663;28;20193;-84
2021/01/08 02:40:19;;;;;;;6.90;6.20;;;3.70;99.90;;;;;;10479308;28;20324;-84
2021/01/08 02:45:21;;;;;;;7.27;6.57;;;3.80;99.70;;;;;;10498304;28;20556;-84
2021/01/08 02:50:22;;;;;;;7.70;7.00;;;3.90;99.60;;;;;;10487702;28;20318;-85
2021/01/08 02:55:29;;;;;;;7.40;6.70;;;4.00;99.30;;;;;;10498632;28;20199;-85
2021/01/08 03:00:33;;;;;;;6.30;5.80;;;4.00;98.80;;;;;;10464521;28;20695;-84
2021/01/08 03:05:35;;;;;;;4.53;4.13;;;4.10;98.80;;;;;;10452501;28;20232;-85
2021/01/08 03:10:37;;;;;;;6.43;5.83;;;4.20;98.90;;;;;;10470804;28;20209;-85
2021/01/08 03:15:39;;;;;;;7.70;6.50;;;4.10;98.90;;;;;;10455293;28;20213;-83
2021/01/08 03:20:40;;;;;;;6.70;6.10;;;4.10;99.00;;;;;;10473417;28;20216;-84
2021/01/08 03:25:43;;;;;;;7.73;6.67;;;4.00;99.30;;;;;;10462367;28;20279;-83
2021/01/08 03:30:44;;;;;;;8.10;7.30;;;3.90;99.40;;;;;;10492283;28;20299;-83
2021/01/08 03:35:46;;;;;;;7.90;7.13;;;3.90;99.20;;;;;;10463958;28;20295;-84
2021/01/08 03:40:49;;;;;;;6.90;6.27;;;3.80;99.40;;;;;;10460570;28;20228;-84
2021/01/08 03:45:50;;;;;;;6.83;6.13;;;3.80;98.90;;;;;;10472958;28;20222;-84
2021/01/08 03:50:52;;;;;;;7.33;6.57;;;3.80;99.10;;;;;;10455775;28;20586;-83
2021/01/08 03:55:54;;;;;;;7.60;6.90;;;3.80;99.30;;;;;;10462158;28;20201;-84
2021/01/08 04:00:56;;;;;;;8.40;7.23;;;3.80;99.20;;;;;;10489324;28;20219;-85
2021/01/08 04:05:57;;;;;;;7.50;6.90;;;3.80;99.20;;;;;;10494317;28;20193;-85
2021/01/08 04:11:00;;;;;;;8.10;7.30;;;3.70;99.10;;;;;;10492198;28;20250;-84
2021/01/08 04:16:02;;;;;;;9.27;7.53;;;3.70;99.10;;;;;;10480819;28;20658;-84
2021/01/08 04:21:03;;;;;;;7.80;6.93;;;3.80;99.60;;;;;;10445569;28;20244;-85
2021/01/08 04:26:07;;;;;;;8.07;7.27;;;3.70;98.80;;;;;;10469305;28;20184;-84
2021/01/08 04:31:09;;;;;;;8.23;7.10;;;3.70;99.00;;;;;;10485789;28;20220;-85
2021/01/08 04:36:11;;;;;;;7.60;7.00;;;3.60;99.30;;;;;;10448917;28;20692;-84
2021/01/08 04:41:14;;;;;;;8.27;7.47;;;3.50;99.50;;;;;;10456480;28;20839;-86
2021/01/08 04:46:19;;;;;;;7.40;6.70;;;3.50;99.50;;;;;;10461678;28;20185;-86
2021/01/08 04:51:22;;;;;;;7.73;7.03;;;3.40;99.60;;;;;;10463073;28;20219;-85
2021/01/08 04:56:28;;;;;;;6.97;6.27;;;3.40;99.70;;;;;;10501959;28;20243;-84
2021/01/08 05:01:30;;;;;;;7.60;6.90;;;3.50;99.30;;;;;;10465109;28;20244;-84
2021/01/08 05:06:32;;;;;;;6.97;6.37;;;3.60;99.20;;;;;;10492319;28;20196;-85
2021/01/08 05:11:35;;;;;;;7.17;6.57;;;3.60;98.80;;;;;;10472565;28;20216;-86
2021/01/08 05:16:37;;;;;;;7.67;6.97;;;3.60;98.80;;;;;;10494358;28;20206;-83
2021/01/08 05:21:40;;;;;;;7.27;6.60;;;3.60;99.00;;;;;;10493778;28;20230;-85
2021/01/08 05:26:42;;;;;;;7.67;6.97;;;3.50;99.10;;;;;;10467430;28;20216;-85
2021/01/08 05:31:46;;;;;;;6.87;6.20;;;3.50;99.50;;;;;;10462146;28;20246;-86
2021/01/08 05:36:49;;;;;;;7.40;6.70;;;3.50;99.80;;;;;;10509794;28;20232;-85
2021/01/08 05:41:52;;;;;;;7.30;6.60;;;3.60;99.30;;;;;;10486393;28;20975;-82
2021/01/08 05:46:56;;;;;;;7.13;6.43;;;3.70;99.50;;;;;;10472416;28;20204;-81
2021/01/08 05:51:58;;;;;;;6.20;5.70;;;3.70;99.00;;;;;;10458761;28;20322;-83
2021/01/08 05:57:01;;;;;;;6.57;5.97;;;3.70;98.70;;;;;;10463403;28;20223;-83
2021/01/08 06:02:02;;;;;;;7.03;6.43;;;3.70;98.90;;;;;;10501285;28;20273;-83
2021/01/08 06:07:15;;;;;;;7.27;6.57;;;3.80;98.80;;;;;;10502025;28;20841;-83
2021/01/08 06:12:19;;;;;;;7.40;6.70;;;3.80;99.00;;;;;;10479132;28;20236;-85
2021/01/08 06:17:22;;;;;;;7.63;6.93;;;3.70;98.90;;;;;;10486949;28;20205;-84
2021/01/08 06:22:25;;;;;;;6.87;6.13;;;3.60;99.20;;;;;;10464367;28;20240;-83
2021/01/08 06:27:32;;;;;;;6.60;6.00;;;3.60;99.20;;;;;;10482285;28;20239;-85
2021/01/08 06:32:34;;;;;;;5.83;5.33;;;3.60;99.20;;;;;;10471482;28;20271;-83
2021/01/08 06:37:41;;;;;;;6.60;6.00;;;3.60;98.90;;;;;;10461384;28;20619;-84
2021/01/08 06:42:45;;;;;;;6.10;5.60;;;3.70;99.30;;;;;;10480502;28;20455;-83
2021/01/08 06:47:48;;;;;;;6.13;5.53;;;3.70;99.50;;;;;;10480946;28;20193;-84
2021/01/08 06:52:50;;;;;;;6.40;5.80;;;3.90;99.20;;;;;;10504824;28;20254;-82
2021/01/08 06:57:53;;;;;;;5.77;5.27;;;3.90;98.80;;;;;;10483136;28;20250;-82
2021/01/08 07:03:04;;;;;;;4.93;4.47;;;4.00;98.40;;;;;;10502315;28;20732;-84
2021/01/08 07:08:06;;;;;;;4.90;4.50;;;4.00;98.30;;;;;;10486516;28;20219;-84
2021/01/08 07:13:08;;;;;;;5.77;5.27;;;4.00;98.30;;;;;;10502887;28;20631;-83
2021/01/08 07:18:13;;;;;;;6.63;5.97;;;4.00;98.30;;;;;;10499149;28;20228;-84
2021/01/08 07:23:25;;;;;;;5.60;5.10;;;4.10;98.40;;;;;;10513278;28;20246;-84
2021/01/08 07:28:30;;;;;;;6.17;5.67;;;4.00;98.00;;;;;;10485795;28;20244;-83
2021/01/08 07:33:32;;;;;;;7.20;6.60;;;4.00;98.20;;;;;;10504229;28;20568;-83
2021/01/08 07:38:33;;;;;;;5.97;5.37;;;3.90;98.10;;;;;;10505425;28;20236;-83
2021/01/08 07:43:36;;;;;;;6.10;5.50;;;3.90;98.30;;;;;;10488194;28;20202;-84
2021/01/08 07:48:39;;;;;;;6.57;5.97;;;3.90;98.20;;;;;;10504937;28;20209;-83
2021/01/08 07:53:48;;;;;;;6.43;5.83;;;3.90;98.60;;;;;;10488878;28;20200;-84
2021/01/08 07:59:00;;;;;;;6.93;6.33;;;3.90;98.40;;;;;;10462673;28;20225;-83
2021/01/08 08:04:04;;;;;;;7.40;6.13;;;3.90;98.80;;;;;;10464361;28;20204;-83
2021/01/08 08:09:07;;;;;;;6.43;5.93;;;4.00;99.10;;;;;;10449214;28;20672;-83
2021/01/08 08:14:14;;;;;;;6.50;5.90;;;4.10;98.80;;;;;;10449639;28;20562;-84
2021/01/08 08:19:16;;;;;;;6.03;5.43;;;4.20;99.00;;;;;;10468214;28;20227;-83
2021/01/08 08:24:19;;;;;;;5.80;5.30;;;4.30;99.30;;;;;;10469520;28;20575;-85
2021/01/08 08:29:23;;;;;;;5.47;4.97;;;4.30;98.70;;;;;;10500780;28;20216;-83
2021/01/08 08:34:29;;;;;;;5.90;5.40;;;4.40;98.50;;;;;;10513399;28;20565;-84
2021/01/08 08:39:31;;;;;;;5.10;4.60;;;4.30;99.20;;;;;;10473958;28;20221;-85
2021/01/08 08:44:42;;;;;;;5.07;4.60;;;4.40;99.50;;;;;;10482086;28;20280;-84
2021/01/08 08:49:44;;;;;;;5.60;5.10;;;4.40;98.70;;;;;;10474560;28;20790;-84
2021/01/08 08:54:48;;;;;;;4.87;4.47;;;4.50;99.10;;;;;;10487346;28;20258;-83
2021/01/08 08:59:51;;;;;;;5.40;4.90;;;4.50;99.10;;;;;;10481047;28;20228;-84
2021/01/08 09:04:54;;;;;;;4.40;4.00;;;4.40;99.20;;;;;;10496605;28;20197;-84
2021/01/08 09:10:03;;;;;;;5.23;4.73;;;4.40;99.90;;;;;;10489403;28;20212;-84
2021/01/08 09:15:16;;;;;;;5.57;5.07;;;4.40;99.90;;;;;;10527831;28;20197;-84
2021/01/08 09:20:23;;;;;;;5.27;4.77;;;4.50;99.90;;;;;;10481049;28;20220;-86
2021/01/08 09:25:25;;;;;;;4.60;4.20;;;4.60;99.90;;;;;;10505165;28;20212;-86
2021/01/08 09:30:28;;;;;;;4.63;4.27;;;4.60;99.90;;;;;;10511687;28;20270;-85
2021/01/08 09:35:31;;;;;;;5.03;4.63;;;4.70;99.60;;;;;;10503923;28;20219;-85
2021/01/08 09:40:35;;;;;;;4.80;4.40;;;4.70;99.80;;;;;;10487161;28;20228;-86
2021/01/08 09:45:37;;;;;;;5.10;4.60;;;4.70;99.90;;;;;;10501340;28;20260;-86
2021/01/08 09:50:43;;;;;;;3.70;3.40;;;4.80;99.90;;;;;;10482817;28;20303;-86
2021/01/08 09:55:44;;;;;;;3.50;3.23;;;4.80;99.70;;;;;;10488648;28;20206;-83
2021/01/08 10:00:51;;;;;;;3.80;3.50;;;4.80;99.60;;;;;;10495322;28;20205;-83
2021/01/08 10:06:02;;;;;;;3.10;2.90;;;4.80;99.20;;;;;;10437671;28;20228;-84
2021/01/08 10:11:03;;;;;;;3.43;3.10;;;4.80;99.30;;;;;;10486368;28;20692;-86
2021/01/08 10:16:08;;;;;;;4.20;3.90;;;4.80;99.70;;;;;;10475582;28;20213;-84
2021/01/08 10:21:13;;;;;;;4.03;3.73;;;4.90;98.70;;;;;;10480627;28;20220;-85
2021/01/08 10:26:17;;;;;;;3.20;3.00;;;5.00;98.60;;;;;;10471653;28;20701;-86
2021/01/08 10:31:23;;;;;;;3.80;3.40;;;5.00;98.40;;;;;;10483857;28;20225;-85
2021/01/08 10:36:25;;;;;;;3.70;3.40;;;5.00;98.30;;;;;;10469862;28;20540;-81
2021/01/08 10:41:27;;;;;;;3.47;3.27;;;4.90;99.20;;;;;;10484950;28;20285;-83
2021/01/08 10:46:29;;;;;;;3.60;3.40;;;4.90;98.30;;;;;;10489539;28;20217;-83
2021/01/08 10:51:32;;;;;;;4.10;3.80;;;5.00;97.90;;;;;;10500231;28;20209;-83
2021/01/08 10:56:35;;;;;;;3.67;3.37;;;5.10;97.90;;;;;;10496912;28;20227;-83
2021/01/08 11:01:41;;;;;;;4.13;3.83;;;5.20;97.50;;;;;;10499160;28;20807;-83
2021/01/08 11:06:43;;;;;;;3.73;3.43;;;5.30;97.10;;;;;;10493205;28;20227;-83
2021/01/08 11:11:44;;;;;;;4.30;3.90;;;5.50;97.00;;;;;;10487577;28;20213;-82
2021/01/08 11:16:47;;;;;;;4.50;4.10;;;5.60;96.80;;;;;;10495585;28;20315;-83
2021/01/08 11:21:52;;;;;;;5.40;4.90;;;5.70;96.80;;;;;;10490259;28;20691;-83
2021/01/08 11:26:54;;;;;;;4.57;4.17;;;5.80;96.30;;;;;;10488340;28;20193;-82
2021/01/08 11:31:56;;;;;;;4.23;3.93;;;5.80;95.90;;;;;;10491170;28;20273;-83
2021/01/08 11:36:58;;;;;;;4.90;4.40;;;5.80;95.60;;;;;;10477192;28;20201;-82
2021/01/08 11:42:00;;;;;;;4.10;3.70;;;5.80;95.90;;;;;;10487369;28;20220;-83
2021/01/08 11:47:03;;;;;;;4.13;3.83;;;5.80;95.60;;;;;;10467476;28;20189;-83
2021/01/08 11:52:05;;;;;;;4.50;4.10;;;5.80;95.10;;;;;;10476928;28;20213;-83
2021/01/08 11:57:07;;;;;;;5.00;4.50;;;5.90;94.50;;;;;;10460728;28;20213;-83
2021/01/08 12:02:09;;;;;;;3.93;3.63;;;5.90;94.10;;;;;;10479875;28;20219;-83
2021/01/08 12:07:11;;;;;;;4.63;4.23;;;5.90;93.60;;;;;;10468574;28;20745;-83
2021/01/08 12:12:12;;;;;;;4.10;3.80;;;5.80;92.80;;;;;;10485024;28;20205;-83
2021/01/08 12:17:15;;;;;;;4.17;3.77;;;5.80;93.10;;;;;;10488080;28;20312;-84
2021/01/08 12:22:17;;;;;;;5.10;4.70;;;5.80;93.40;;;;;;10464252;28;20224;-86
2021/01/08 12:27:19;;;;;;;5.17;4.77;;;5.90;93.80;;;;;;10484827;28;20488;-84
2021/01/08 12:32:21;;;;;;;5.57;5.07;;;5.80;93.20;;;;;;10493694;28;20307;-84
2021/01/08 12:37:23;;;;;;;5.00;4.50;;;5.70;93.30;;;;;;10488235;28;20228;-83
2021/01/08 12:42:25;;;;;;;5.30;4.80;;;5.60;93.80;;;;;;10480791;28;20295;-81
2021/01/08 12:47:27;;;;;;;4.63;4.03;;;5.50;93.40;;;;;;10500520;28;20557;-85
2021/01/08 12:52:29;;;;;;;4.80;4.40;;;5.50;93.80;;;;;;10486947;28;20278;-81
2021/01/08 12:57:31;;;;;;;5.53;5.00;;;5.40;93.80;;;;;;10464363;28;20311;-84
2021/01/08 13:02:33;;;;;;;5.63;5.13;;;5.30;94.80;;;;;;10476052;28;20216;-83
2021/01/08 13:07:35;;;;;;;4.93;4.40;;;5.30;94.00;;;;;;10473998;28;20284;-82
2021/01/08 13:12:37;;;;;;;5.70;5.20;;;5.30;94.20;;;;;;10490564;28;20220;-85
2021/01/08 13:17:40;;;;;;;6.07;5.57;;;5.20;93.90;;;;;;10497641;28;20266;-83
2021/01/08 13:22:42;;;;;;;6.20;5.60;;;5.20;94.10;;;;;;10461713;28;20224;-78
2021/01/08 13:27:44;;;;;;;5.60;4.97;;;5.20;94.60;;;;;;10495987;28;20669;-82
2021/01/08 13:32:46;;;;;;;5.40;4.90;;;5.20;94.20;;;;;;10474492;28;20247;-83
2021/01/08 13:37:48;;;;;;;6.10;5.50;;;5.20;94.30;;;;;;10492326;28;20233;-81
2021/01/08 13:42:50;;;;;;;5.83;5.33;;;5.30;94.50;;;;;;10474265;28;20230;-82
2021/01/08 13:47:53;;;;;;;5.90;5.40;;;5.30;93.80;;;;;;10512279;28;20193;-82
2021/01/08 13:52:54;;;;;;;5.67;5.17;;;5.30;93.70;;;;;;10496978;28;20200;-82
2021/01/08 13:57:56;;;;;;;5.77;5.30;;;5.30;93.80;;;;;;10486366;28;20216;-81
2021/01/08 14:02:58;;;;;;;5.90;5.40;;;5.30;93.60;;;;;;10505042;28;20202;-83
2021/01/08 14:08:00;;;;;;;7.00;5.73;;;5.40;94.00;;;;;;10474620;28;20193;-81
2021/01/08 14:13:02;;;;;;;6.20;5.50;;;5.40;93.90;;;;;;10476844;28;20212;-82
2021/01/08 14:18:04;;;;;;;5.83;4.90;;;5.40;93.80;;;;;;10485524;28;20315;-82
2021/01/08 14:23:06;;;;;;;5.50;4.90;;;5.40;94.10;;;;;;10478201;28;20199;-82
2021/01/08 14:28:08;;;;;;;5.80;4.83;;;5.40;93.90;;;;;;10477830;28;20228;-80
2021/01/08 14:33:10;;;;;;;5.77;5.20;;;5.30;93.80;;;;;;10494446;28;20298;-82
2021/01/08 14:38:12;;;;;;;5.43;4.90;;;5.30;93.80;;;;;;10478267;28;20715;-78
2021/01/08 14:43:13;;;;;;;6.17;5.57;;;5.20;94.30;;;;;;10477303;28;20206;-83
2021/01/08 14:48:18;;;;;;;6.20;5.63;;;5.20;94.30;;;;;;10477784;28;20216;-81
2021/01/08 14:53:20;;;;;;;6.20;5.57;;;5.10;94.60;;;;;;10490413;28;20205;-83
2021/01/08 14:58:21;;;;;;;5.70;5.10;;;5.10;94.70;;;;;;10480845;28;20307;-82
2021/01/08 15:03:24;;;;;;;6.30;5.70;;;5.10;94.90;;;;;;10476975;28;20565;-82
2021/01/08 15:08:25;;;;;;;7.37;5.90;;;5.10;95.30;;;;;;10474015;28;20935;-82
2021/01/08 15:13:27;;;;;;;6.53;4.80;;;5.00;96.00;;;;;;10472174;28;20239;-83
2021/01/08 15:18:30;;;;;;;4.73;4.33;;;5.00;95.60;;;;;;10472088;28;20224;-85
2021/01/08 15:23:32;;;;;;;4.80;4.40;;;5.00;96.20;;;;;;10475292;28;20691;-83
2021/01/08 15:28:34;;;;;;;5.40;4.90;;;5.00;95.40;;;;;;10474938;28;20253;-85
2021/01/08 15:33:37;;;;;;;5.00;4.53;;;5.00;95.50;;;;;;10473422;28;20228;-85
2021/01/08 15:38:41;;;;;;;5.30;4.90;;;4.90;95.10;;;;;;10479222;28;20228;-84
2021/01/08 15:43:46;;;;;;;5.90;4.50;;;4.90;95.10;;;;;;10481809;28;20208;-86
2021/01/08 15:48:49;;;;;;;4.97;4.50;;;4.80;95.10;;;;;;10500232;28;20251;-84
2021/01/08 15:53:51;;;;;;;5.17;4.67;;;4.80;95.10;;;;;;10506948;28;20196;-82
2021/01/08 15:58:52;;;;;;;4.70;4.30;;;4.80;95.30;;;;;;10482506;28;20654;-83
2021/01/08 16:03:55;;;;;;;5.13;4.67;;;4.80;94.70;;;;;;10498144;28;20613;-82
2021/01/08 16:08:57;;;;;;;5.57;5.03;;;4.80;95.10;;;;;;10482779;28;20301;-81
2021/01/08 16:13:58;;;;;;;5.63;5.13;;;4.80;96.30;;;;;;10481680;28;20196;-82
2021/01/08 16:19:01;;;;;;;4.80;4.30;;;4.80;96.00;;;;;;10499680;28;20303;-82
2021/01/08 16:24:03;;;;;;;5.80;5.20;;;4.80;95.70;;;;;;10482858;28;20204;-80
2021/01/08 16:29:05;;;;;;;5.57;5.07;;;4.80;95.60;;;;;;10496390;28;20212;-81
2021/01/08 16:34:07;;;;;;;5.37;4.93;;;4.80;96.30;;;;;;10496382;28;20291;-82
2021/01/08 16:39:09;;;;;;;7.30;5.27;;;4.70;96.40;;;;;;10476923;28;20311;-81
2021/01/08 16:44:11;;;;;;;5.03;4.30;;;4.70;96.40;;;;;;10490506;28;20192;-81
2021/01/08 16:49:14;;;;;;;5.40;4.90;;;4.70;95.90;;;;;;10474579;28;20266;-81
2021/01/08 16:54:15;;;;;;;4.93;4.50;;;4.70;95.80;;;;;;10491812;28;20280;-81
2021/01/08 16:59:17;;;;;;;5.50;5.00;;;4.60;96.10;;;;;;10495690;28;20311;-81
2021/01/08 17:04:19;;;;;;;5.70;5.20;;;4.60;95.90;;;;;;10490020;28;20288;-81
2021/01/08 17:09:22;;;;;;;5.20;4.80;;;4.60;95.80;;;;;;10490504;28;20209;-81
2021/01/08 17:14:23;;;;;;;6.63;5.63;;;4.70;95.70;;;;;;10492032;28;20223;-81
2021/01/08 17:19:26;;;;;;;5.83;5.33;;;4.70;95.50;;;;;;10490971;28;20748;-81
2021/01/08 17:24:28;;;;;;;5.93;5.33;;;4.80;95.70;;;;;;10491262;28;20334;-80
2021/01/08 17:29:32;;;;;;;5.00;4.53;;;4.80;95.10;;;;;;10490645;28;20274;-80
2021/01/08 17:34:34;;;;;;;5.60;4.97;;;4.80;94.40;;;;;;10489252;28;20254;-80
2021/01/08 17:39:36;;;;;;;6.43;5.80;;;4.80;95.00;;;;;;10491606;28;20585;-81
2021/01/08 17:44:37;;;;;;;6.27;5.67;;;4.70;95.60;;;;;;10490374;28;20274;-81
2021/01/08 17:49:40;;;;;;;7.10;5.20;;;4.70;94.70;;;;;;10492681;28;21055;-81
2021/01/08 17:54:42;;;;;;;8.87;5.87;;;4.70;95.10;;;;;;10490107;28;20189;-81
2021/01/08 17:59:43;;;;;;;6.20;5.60;;;4.70;95.80;;;;;;10489248;28;20224;-81
2021/01/08 18:04:46;;;;;;;7.37;6.67;;;4.70;95.60;;;;;;10493571;28;20685;-81
2021/01/08 18:09:47;;;;;;;7.70;6.30;;;4.80;95.20;;;;;;10489884;28;20262;-81
2021/01/08 18:14:49;;;;;;;6.23;5.63;;;4.70;94.90;;;;;;10469984;28;20214;-80
2021/01/08 18:19:51;;;;;;;7.60;6.20;;;4.70;95.50;;;;;;10487161;28;20254;-80
2021/01/08 18:24:53;;;;;;;6.57;5.93;;;4.80;95.50;;;;;;10478581;28;20201;-80
2021/01/08 18:29:55;;;;;;;5.70;5.20;;;4.80;95.30;;;;;;10474120;28;20245;-81
2021/01/08 18:34:57;;;;;;;6.00;5.47;;;4.80;95.50;;;;;;10475881;28;20204;-81
2021/01/08 18:39:59;;;;;;;6.70;6.10;;;4.70;95.40;;;;;;10475446;28;20623;-80
2021/01/08 18:45:00;;;;;;;6.97;6.27;;;4.70;95.40;;;;;;10477195;28;20617;-81
2021/01/08 18:50:04;;;;;;;8.10;6.00;;;4.80;95.30;;;;;;10475096;28;20213;-81
2021/01/08 18:55:07;;;;;;;7.17;6.47;;;4.80;95.20;;;;;;10475879;28;20207;-81
2021/01/08 19:00:10;;;;;;;6.70;6.07;;;4.80;95.40;;;;;;10477031;28;20708;-81
2021/01/08 19:05:13;;;;;;;7.00;6.30;;;4.80;95.40;;;;;;10465140;28;20205;-81
2021/01/08 19:10:14;;;;;;;8.67;7.80;;;4.80;95.20;;;;;;10476499;28;20782;-81
2021/01/08 19:15:16;;;;;;;7.17;6.47;;;4.80;95.50;;;;;;10457812;28;20189;-81
2021/01/08 19:20:20;;;;;;;6.57;5.97;;;4.70;95.70;;;;;;10476286;28;20231;-81
2021/01/08 19:25:22;;;;;;;7.67;6.80;;;4.80;95.30;;;;;;10466896;28;20284;-81
2021/01/08 19:30:24;;;;;;;7.30;6.60;;;4.70;95.30;;;;;;10469084;28;20213;-81
2021/01/08 19:35:26;;;;;;;5.03;4.53;;;4.70;95.70;;;;;;10457234;28;20215;-81
2021/01/08 19:40:33;;;;;;;7.80;7.00;;;4.70;95.50;;;;;;10460985;28;20359;-82
2021/01/08 19:45:39;;;;;;;7.10;6.40;;;4.60;95.30;;;;;;10503196;28;20219;-82
2021/01/08 19:50:42;;;;;;;7.40;6.70;;;4.60;95.70;;;;;;10491529;28;20212;-82
2021/01/08 19:55:44;;;;;;;7.70;6.97;;;4.60;96.00;;;;;;10479901;28;20201;-82
2021/01/08 20:00:46;;;;;;;8.27;7.37;;;4.60;95.80;;;;;;10456662;28;20228;-82
2021/01/08 20:05:48;;;;;;;8.40;7.37;;;4.60;95.70;;;;;;10459025;28;20198;-83
2021/01/08 20:10:52;;;;;;;7.20;6.50;;;4.60;96.00;;;;;;10443946;28;20220;-82
2021/01/08 20:15:54;;;;;;;8.03;7.27;;;4.60;96.00;;;;;;10436587;28;20197;-83
2021/01/08 20:20:56;;;;;;;8.67;7.87;;;4.60;96.20;;;;;;10457389;28;20350;-83
2021/01/08 20:25:58;;;;;;;8.57;7.63;;;4.60;96.50;;;;;;10457849;28;20224;-83
2021/01/08 20:31:00;;;;;;;10.80;9.70;;;4.60;96.50;;;;;;10477956;28;20221;-82
2021/01/08 20:36:03;;;;;;;9.40;8.60;;;4.50;96.40;;;;;;10477916;28;20200;-83
2021/01/08 20:41:06;;;;;;;10.60;9.50;;;4.50;97.00;;;;;;10480714;28;20216;-83
2021/01/08 20:46:07;;;;;;;9.00;8.10;;;4.50;97.20;;;;;;10500322;28;20218;-82
2021/01/08 20:51:10;;;;;;;10.93;9.83;;;4.50;97.40;;;;;;10500561;28;20208;-82
2021/01/08 20:56:12;;;;;;;10.10;9.10;;;4.60;97.10;;;;;;10483819;28;20208;-82
2021/01/08 21:01:13;;;;;;;10.80;9.67;;;4.60;97.20;;;;;;10500870;28;20562;-83
2021/01/08 21:06:16;;;;;;;10.93;9.80;;;4.60;96.90;;;;;;10483571;28;20657;-82
2021/01/08 21:11:18;;;;;;;11.00;9.50;;;4.60;97.10;;;;;;10484833;28;20681;-82
2021/01/08 21:16:20;;;;;;;10.13;9.13;;;4.60;96.40;;;;;;10485880;28;20195;-83
2021/01/08 21:21:23;;;;;;;10.37;9.33;;;4.60;96.70;;;;;;10482861;28;20227;-82
2021/01/08 21:26:24;;;;;;;9.60;8.47;;;4.50;95.80;;;;;;10485561;28;20715;-83
2021/01/08 21:31:26;;;;;;;9.10;8.30;;;4.50;96.10;;;;;;10497639;28;20304;-82
2021/01/08 21:36:36;;;;;;;9.20;8.30;;;4.40;96.20;;;;;;10498934;28;20201;-82
2021/01/08 21:41:42;;;;;;;8.97;8.17;;;4.40;96.40;;;;;;10456604;28;20237;-82
2021/01/08 21:46:44;;;;;;;10.27;9.33;;;4.30;96.70;;;;;;10458256;28;20193;-82
2021/01/08 21:51:48;;;;;;;10.20;9.20;;;4.40;97.20;;;;;;10483892;28;20200;-82
2021/01/08 21:56:50;;;;;;;10.03;9.00;;;4.40;96.90;;;;;;10465243;28;20587;-82
2021/01/08 22:01:52;;;;;;;10.27;9.37;;;4.50;97.10;;;;;;10493017;28;20240;-82
2021/01/08 22:06:55;;;;;;;10.00;9.10;;;4.40;97.00;;;;;;10498595;28;20661;-83
2021/01/08 22:11:57;;;;;;;12.20;9.67;;;4.40;97.30;;;;;;10499179;28;20247;-83
2021/01/08 22:16:58;;;;;;;10.73;9.70;;;4.50;97.10;;;;;;10485026;28;20554;-83
2021/01/08 22:22:01;;;;;;;10.30;9.27;;;4.50;97.30;;;;;;10482250;28;20585;-83
2021/01/08 22:27:03;;;;;;;10.20;9.30;;;4.40;97.10;;;;;;10497862;28;20193;-83
2021/01/08 22:32:08;;;;;;;10.77;9.70;;;4.50;97.30;;;;;;10482556;28;20224;-83
2021/01/08 22:37:12;;;;;;;11.90;10.70;;;4.50;96.80;;;;;;10491974;28;20212;-82
2021/01/08 22:42:13;;;;;;;12.73;11.47;;;4.50;96.60;;;;;;10479073;28;20290;-83
2021/01/08 22:47:15;;;;;;;12.27;11.07;;;4.40;96.60;;;;;;10476905;28;20184;-83
2021/01/08 22:52:18;;;;;;;12.30;11.00;;;4.40;97.20;;;;;;10473569;28;20628;-82
2021/01/08 22:57:19;;;;;;;11.03;10.00;;;4.40;97.20;;;;;;10440218;28;20225;-84
2021/01/08 23:02:21;;;;;;;11.23;10.03;;;4.40;96.60;;;;;;10453386;28;20219;-82
2021/01/08 23:07:24;;;;;;;11.10;10.00;;;4.40;96.60;;;;;;10437277;28;20197;-82
2021/01/08 23:12:25;;;;;;;13.13;11.63;;;4.30;96.90;;;;;;10462561;28;20646;-83
2021/01/08 23:17:27;;;;;;;11.97;10.80;;;4.30;97.70;;;;;;10490207;28;20204;-83
2021/01/08 23:22:29;;;;;;;11.80;10.63;;;4.30;97.80;;;;;;10480176;28;20220;-82
2021/01/08 23:27:31;;;;;;;11.50;10.43;;;4.30;97.70;;;;;;10485591;28;20683;-82
2021/01/08 23:32:34;;;;;;;11.80;10.60;;;4.40;97.60;;;;;;10466902;28;20607;-81
2021/01/08 23:37:42;;;;;;;12.87;11.37;;;4.30;97.10;;;;;;10488800;28;20213;-83
2021/01/08 23:42:43;;;;;;;11.33;10.23;;;4.30;98.00;;;;;;10475461;28;20236;-82
2021/01/08 23:47:46;;;;;;;11.53;10.43;;;4.30;97.60;;;;;;10491011;28;20204;-83
2021/01/08 23:52:49;;;;;;;11.23;10.17;;;4.30;97.40;;;;;;10492555;28;20197;-82
2021/01/08 23:57:51;;;;;;;11.60;10.10;;;4.30;97.40;;;;;;10457027;28;20234;-82
